sensor_id;sensor_type;location;lat;lon;timestamp;temperature;humidity
1377;DHT22;682;52.502;13.488;2023-11-18T00:00:55;6.40;1.00
1377;DHT22;682;52.502;13.488;2023-11-18T00:03:22;6.40;1.00
1377;DHT22;682;52.502;13.488;2023-11-18T00:05:49;6.40;1.00
1377;DHT22;682;52.502;13.488;2023-11-18T00:08:16;6.30;1.00
1377;DHT22;682;52.502;13.488;2023-11-18T00:10:43;6.40;1.00
1377;DHT22;682;52.502;13.488;2023-11-18T00:13:11;6.40;1.00
1377;DHT22;682;52.502;13.488;2023-11-18T00:15:38;6.40;1.00
1377;DHT22;682;52.502;13.488;2023-11-18T00:18:08;6.30;1.00
1377;DHT22;682;52.502;13.488;2023-11-18T00:20:35;6.30;1.00
1377;DHT22;682;52.502;13.488;2023-11-18T00:23:02;6.30;1.00
1377;DHT22;682;52.502;13.488;2023-11-18T00:25:30;6.30;1.00
1377;DHT22;682;52.502;13.488;2023-11-18T00:27:57;6.20;1.00
1377;DHT22;682;52.502;13.488;2023-11-18T00:30:25;6.20;1.00
1377;DHT22;682;52.502;13.488;2023-11-18T00:32:53;6.20;1.00
1377;DHT22;682;52.502;13.488;2023-11-18T00:35:21;6.20;1.00
1377;DHT22;682;52.502;13.488;2023-11-18T00:37:48;6.20;1.00
1377;DHT22;682;52.502;13.488;2023-11-18T00:40:15;6.10;1.00
1377;DHT22;682;52.502;13.488;2023-11-18T00:42:43;6.10;1.00
1377;DHT22;682;52.502;13.488;2023-11-18T00:45:10;6.20;1.00
1377;DHT22;682;52.502;13.488;2023-11-18T00:47:39;6.20;1.00
1377;DHT22;682;52.502;13.488;2023-11-18T00:50:08;6.20;1.00
1377;DHT22;682;52.502;13.488;2023-11-18T00:52:36;6.20;1.00
1377;DHT22;682;52.502;13.488;2023-11-18T00:55:05;6.20;1.00
1377;DHT22;682;52.502;13.488;2023-11-18T00:57:36;6.20;1.00
1377;DHT22;682;52.502;13.488;2023-11-18T01:00:06;6.20;1.00
1377;DHT22;682;52.502;13.488;2023-11-18T01:02:33;6.20;1.00
1377;DHT22;682;52.502;13.488;2023-11-18T01:05:04;6.10;1.00
1377;DHT22;682;52.502;13.488;2023-11-18T01:07:32;6.20;1.00
1377;DHT22;682;52.502;13.488;2023-11-18T01:09:59;6.20;1.00
1377;DHT22;682;52.502;13.488;2023-11-18T01:12:26;6.10;1.00
1377;DHT22;682;52.502;13.488;2023-11-18T01:14:53;6.10;1.00
1377;DHT22;682;52.502;13.488;2023-11-18T01:17:20;6.10;1.00
1377;DHT22;682;52.502;13.488;2023-11-18T01:19:47;6.10;1.00
1377;DHT22;682;52.502;13.488;2023-11-18T01:22:16;6.10;1.00
1377;DHT22;682;52.502;13.488;2023-11-18T01:24:44;6.20;1.00
1377;DHT22;682;52.502;13.488;2023-11-18T01:27:11;6.20;1.00
1377;DHT22;682;52.502;13.488;2023-11-18T01:29:38;6.10;1.00
1377;DHT22;682;52.502;13.488;2023-11-18T01:32:09;6.10;1.00
1377;DHT22;682;52.502;13.488;2023-11-18T01:34:37;6.10;1.00
1377;DHT22;682;52.502;13.488;2023-11-18T01:37:04;6.10;1.00
1377;DHT22;682;52.502;13.488;2023-11-18T01:39:34;6.10;1.00
1377;DHT22;682;52.502;13.488;2023-11-18T01:42:01;6.20;1.00
1377;DHT22;682;52.502;13.488;2023-11-18T01:44:28;6.20;1.00
1377;DHT22;682;52.502;13.488;2023-11-18T01:46:55;6.10;1.00
1377;DHT22;682;52.502;13.488;2023-11-18T01:49:23;6.20;1.00
1377;DHT22;682;52.502;13.488;2023-11-18T01:51:50;6.10;1.00
1377;DHT22;682;52.502;13.488;2023-11-18T01:54:18;6.10;1.00
1377;DHT22;682;52.502;13.488;2023-11-18T01:56:48;6.10;1.00
1377;DHT22;682;52.502;13.488;2023-11-18T01:59:15;6.10;1.00
1377;DHT22;682;52.502;13.488;2023-11-18T02:01:47;6.10;1.00
1377;DHT22;682;52.502;13.488;2023-11-18T02:04:15;6.20;1.00
1377;DHT22;682;52.502;13.488;2023-11-18T02:06:45;6.20;1.00
1377;DHT22;682;52.502;13.488;2023-11-18T02:09:13;6.20;1.00
1377;DHT22;682;52.502;13.488;2023-11-18T02:11:48;6.30;1.00
1377;DHT22;682;52.502;13.488;2023-11-18T02:14:20;6.30;1.00
1377;DHT22;682;52.502;13.488;2023-11-18T02:16:50;6.30;1.00
1377;DHT22;682;52.502;13.488;2023-11-18T02:19:21;6.30;1.00
1377;DHT22;682;52.502;13.488;2023-11-18T02:21:51;6.20;1.00
1377;DHT22;682;52.502;13.488;2023-11-18T02:24:26;6.20;1.00
1377;DHT22;682;52.502;13.488;2023-11-18T02:26:57;6.20;1.00
1377;DHT22;682;52.502;13.488;2023-11-18T02:29:24;6.20;1.00
1377;DHT22;682;52.502;13.488;2023-11-18T02:31:54;6.20;1.00
1377;DHT22;682;52.502;13.488;2023-11-18T02:34:27;6.20;1.00
1377;DHT22;682;52.502;13.488;2023-11-18T02:36:58;6.20;1.00
1377;DHT22;682;52.502;13.488;2023-11-18T02:39:30;6.20;1.00
1377;DHT22;682;52.502;13.488;2023-11-18T02:42:01;6.20;1.00
1377;DHT22;682;52.502;13.488;2023-11-18T02:44:30;6.20;1.00
1377;DHT22;682;52.502;13.488;2023-11-18T02:46:59;6.20;1.00
1377;DHT22;682;52.502;13.488;2023-11-18T02:49:26;6.20;1.00
1377;DHT22;682;52.502;13.488;2023-11-18T02:51:54;6.20;1.00
1377;DHT22;682;52.502;13.488;2023-11-18T02:54:21;6.20;1.00
1377;DHT22;682;52.502;13.488;2023-11-18T02:56:48;6.10;1.00
1377;DHT22;682;52.502;13.488;2023-11-18T02:59:17;6.10;1.00
1377;DHT22;682;52.502;13.488;2023-11-18T03:01:44;6.10;1.00
1377;DHT22;682;52.502;13.488;2023-11-18T03:04:11;6.10;1.00
1377;DHT22;682;52.502;13.488;2023-11-18T03:06:39;6.10;1.00
1377;DHT22;682;52.502;13.488;2023-11-18T03:09:07;6.20;1.00
1377;DHT22;682;52.502;13.488;2023-11-18T03:11:36;6.20;1.00
1377;DHT22;682;52.502;13.488;2023-11-18T03:14:03;6.30;1.00
1377;DHT22;682;52.502;13.488;2023-11-18T03:16:36;6.30;1.00
1377;DHT22;682;52.502;13.488;2023-11-18T03:19:03;6.30;1.00
1377;DHT22;682;52.502;13.488;2023-11-18T03:21:30;6.30;1.00
1377;DHT22;682;52.502;13.488;2023-11-18T03:23:57;6.30;1.00
1377;DHT22;682;52.502;13.488;2023-11-18T03:26:24;6.30;1.00
1377;DHT22;682;52.502;13.488;2023-11-18T03:28:52;6.40;1.00
1377;DHT22;682;52.502;13.488;2023-11-18T03:31:19;6.40;1.00
1377;DHT22;682;52.502;13.488;2023-11-18T03:33:47;6.40;1.00
1377;DHT22;682;52.502;13.488;2023-11-18T03:36:14;6.40;1.00
1377;DHT22;682;52.502;13.488;2023-11-18T03:38:43;6.30;1.00
1377;DHT22;682;52.502;13.488;2023-11-18T03:41:10;6.30;1.00
1377;DHT22;682;52.502;13.488;2023-11-18T03:43:38;6.20;1.00
1377;DHT22;682;52.502;13.488;2023-11-18T03:46:05;6.20;1.00
1377;DHT22;682;52.502;13.488;2023-11-18T03:48:33;6.20;1.00
1377;DHT22;682;52.502;13.488;2023-11-18T03:51:03;6.20;1.00
1377;DHT22;682;52.502;13.488;2023-11-18T03:53:30;6.20;1.00
1377;DHT22;682;52.502;13.488;2023-11-18T03:55:59;6.20;1.00
1377;DHT22;682;52.502;13.488;2023-11-18T03:58:26;6.20;1.00
1377;DHT22;682;52.502;13.488;2023-11-18T04:00:53;6.20;1.00
1377;DHT22;682;52.502;13.488;2023-11-18T04:03:20;6.20;1.00
1377;DHT22;682;52.502;13.488;2023-11-18T04:05:47;6.20;1.00
1377;DHT22;682;52.502;13.488;2023-11-18T04:08:15;6.30;1.00
1377;DHT22;682;52.502;13.488;2023-11-18T04:10:43;6.30;1.00
1377;DHT22;682;52.502;13.488;2023-11-18T04:13:10;6.30;1.00
1377;DHT22;682;52.502;13.488;2023-11-18T04:15:37;6.20;1.00
1377;DHT22;682;52.502;13.488;2023-11-18T04:18:04;6.20;1.00
1377;DHT22;682;52.502;13.488;2023-11-18T04:20:32;6.20;1.00
1377;DHT22;682;52.502;13.488;2023-11-18T04:22:58;6.20;1.00
1377;DHT22;682;52.502;13.488;2023-11-18T04:25:27;6.20;1.00
1377;DHT22;682;52.502;13.488;2023-11-18T04:27:54;6.30;1.00
1377;DHT22;682;52.502;13.488;2023-11-18T04:30:21;6.30;1.00
1377;DHT22;682;52.502;13.488;2023-11-18T04:32:47;6.40;1.00
1377;DHT22;682;52.502;13.488;2023-11-18T04:35:17;6.40;1.00
1377;DHT22;682;52.502;13.488;2023-11-18T04:37:44;6.40;1.00
1377;DHT22;682;52.502;13.488;2023-11-18T04:40:12;6.40;1.00
1377;DHT22;682;52.502;13.488;2023-11-18T04:42:40;6.30;1.00
1377;DHT22;682;52.502;13.488;2023-11-18T04:45:08;6.30;1.00
1377;DHT22;682;52.502;13.488;2023-11-18T04:47:36;6.30;1.00
1377;DHT22;682;52.502;13.488;2023-11-18T04:50:04;6.20;1.00
1377;DHT22;682;52.502;13.488;2023-11-18T04:52:35;6.20;1.00
1377;DHT22;682;52.502;13.488;2023-11-18T04:55:03;6.20;1.00
1377;DHT22;682;52.502;13.488;2023-11-18T04:57:31;6.20;1.00
1377;DHT22;682;52.502;13.488;2023-11-18T05:00:00;6.10;1.00
1377;DHT22;682;52.502;13.488;2023-11-18T05:02:35;6.10;1.00
1377;DHT22;682;52.502;13.488;2023-11-18T05:05:03;6.10;1.00
1377;DHT22;682;52.502;13.488;2023-11-18T05:07:31;6.10;1.00
1377;DHT22;682;52.502;13.488;2023-11-18T05:09:57;6.10;1.00
1377;DHT22;682;52.502;13.488;2023-11-18T05:12:24;6.10;1.00
1377;DHT22;682;52.502;13.488;2023-11-18T05:14:51;6.20;1.00
1377;DHT22;682;52.502;13.488;2023-11-18T05:17:21;6.20;1.00
1377;DHT22;682;52.502;13.488;2023-11-18T05:19:48;6.20;1.00
1377;DHT22;682;52.502;13.488;2023-11-18T05:22:15;6.20;1.00
1377;DHT22;682;52.502;13.488;2023-11-18T05:24:43;6.20;1.00
1377;DHT22;682;52.502;13.488;2023-11-18T05:27:11;6.30;1.00
1377;DHT22;682;52.502;13.488;2023-11-18T05:29:37;6.30;1.00
1377;DHT22;682;52.502;13.488;2023-11-18T05:32:07;6.30;1.00
1377;DHT22;682;52.502;13.488;2023-11-18T05:34:35;6.30;1.00
1377;DHT22;682;52.502;13.488;2023-11-18T05:37:02;6.30;1.00
1377;DHT22;682;52.502;13.488;2023-11-18T05:39:29;6.30;1.00
1377;DHT22;682;52.502;13.488;2023-11-18T05:41:57;6.30;1.00
1377;DHT22;682;52.502;13.488;2023-11-18T05:44:23;6.20;1.00
1377;DHT22;682;52.502;13.488;2023-11-18T05:46:56;6.20;1.00
1377;DHT22;682;52.502;13.488;2023-11-18T05:49:23;6.10;1.00
1377;DHT22;682;52.502;13.488;2023-11-18T05:51:52;6.20;1.00
1377;DHT22;682;52.502;13.488;2023-11-18T05:54:19;6.20;1.00
1377;DHT22;682;52.502;13.488;2023-11-18T05:56:46;6.20;1.00
1377;DHT22;682;52.502;13.488;2023-11-18T05:59:13;6.20;1.00
1377;DHT22;682;52.502;13.488;2023-11-18T06:01:40;6.20;1.00
1377;DHT22;682;52.502;13.488;2023-11-18T06:04:07;6.10;1.00
1377;DHT22;682;52.502;13.488;2023-11-18T06:06:35;6.10;1.00
1377;DHT22;682;52.502;13.488;2023-11-18T06:09:04;6.10;1.00
1377;DHT22;682;52.502;13.488;2023-11-18T06:11:35;6.00;1.00
1377;DHT22;682;52.502;13.488;2023-11-18T06:14:02;5.90;1.00
1377;DHT22;682;52.502;13.488;2023-11-18T06:16:29;5.90;1.00
1377;DHT22;682;52.502;13.488;2023-11-18T06:18:57;5.80;1.00
1377;DHT22;682;52.502;13.488;2023-11-18T06:21:25;5.70;1.00
1377;DHT22;682;52.502;13.488;2023-11-18T06:23:55;5.70;1.00
1377;DHT22;682;52.502;13.488;2023-11-18T06:26:24;5.60;1.00
1377;DHT22;682;52.502;13.488;2023-11-18T06:28:53;5.60;1.00
1377;DHT22;682;52.502;13.488;2023-11-18T06:31:20;5.60;1.00
1377;DHT22;682;52.502;13.488;2023-11-18T06:33:49;5.60;1.00
1377;DHT22;682;52.502;13.488;2023-11-18T06:36:17;5.50;1.00
1377;DHT22;682;52.502;13.488;2023-11-18T06:38:44;5.50;1.00
1377;DHT22;682;52.502;13.488;2023-11-18T06:41:12;5.50;1.00
1377;DHT22;682;52.502;13.488;2023-11-18T06:43:43;5.50;1.00
1377;DHT22;682;52.502;13.488;2023-11-18T06:46:18;5.50;1.00
1377;DHT22;682;52.502;13.488;2023-11-18T06:48:47;5.40;1.00
1377;DHT22;682;52.502;13.488;2023-11-18T06:51:15;5.40;1.00
1377;DHT22;682;52.502;13.488;2023-11-18T06:53:42;5.50;1.00
1377;DHT22;682;52.502;13.488;2023-11-18T06:56:10;5.50;1.00
1377;DHT22;682;52.502;13.488;2023-11-18T06:58:38;5.50;1.00
1377;DHT22;682;52.502;13.488;2023-11-18T07:01:06;5.60;1.00
1377;DHT22;682;52.502;13.488;2023-11-18T07:03:33;5.60;1.00
1377;DHT22;682;52.502;13.488;2023-11-18T07:06:01;5.70;1.00
1377;DHT22;682;52.502;13.488;2023-11-18T07:08:31;5.70;1.00
1377;DHT22;682;52.502;13.488;2023-11-18T07:10:58;5.80;1.00
1377;DHT22;682;52.502;13.488;2023-11-18T07:13:27;5.80;1.00
1377;DHT22;682;52.502;13.488;2023-11-18T07:15:54;5.90;1.00
1377;DHT22;682;52.502;13.488;2023-11-18T07:18:23;6.00;1.00
1377;DHT22;682;52.502;13.488;2023-11-18T07:20:50;6.00;1.00
1377;DHT22;682;52.502;13.488;2023-11-18T07:23:18;6.10;1.00
1377;DHT22;682;52.502;13.488;2023-11-18T07:25:45;6.20;1.00
1377;DHT22;682;52.502;13.488;2023-11-18T07:28:13;6.20;1.00
1377;DHT22;682;52.502;13.488;2023-11-18T07:30:42;6.20;1.00
1377;DHT22;682;52.502;13.488;2023-11-18T07:33:12;6.10;1.00
1377;DHT22;682;52.502;13.488;2023-11-18T07:35:41;6.20;1.00
1377;DHT22;682;52.502;13.488;2023-11-18T07:38:08;6.20;1.00
1377;DHT22;682;52.502;13.488;2023-11-18T07:40:36;6.20;1.00
1377;DHT22;682;52.502;13.488;2023-11-18T07:43:07;6.30;1.00
1377;DHT22;682;52.502;13.488;2023-11-18T07:45:35;6.40;1.00
1377;DHT22;682;52.502;13.488;2023-11-18T07:48:04;6.40;1.00
1377;DHT22;682;52.502;13.488;2023-11-18T07:50:33;6.50;1.00
1377;DHT22;682;52.502;13.488;2023-11-18T07:53:01;6.50;1.00
1377;DHT22;682;52.502;13.488;2023-11-18T07:55:28;6.40;1.00
1377;DHT22;682;52.502;13.488;2023-11-18T07:57:55;6.30;1.00
1377;DHT22;682;52.502;13.488;2023-11-18T08:00:22;6.40;1.00
1377;DHT22;682;52.502;13.488;2023-11-18T08:02:50;6.40;1.00
1377;DHT22;682;52.502;13.488;2023-11-18T08:05:20;6.30;1.00
1377;DHT22;682;52.502;13.488;2023-11-18T08:07:48;6.30;1.00
1377;DHT22;682;52.502;13.488;2023-11-18T08:10:17;6.30;1.00
1377;DHT22;682;52.502;13.488;2023-11-18T08:12:45;6.40;1.00
1377;DHT22;682;52.502;13.488;2023-11-18T08:15:13;6.40;1.00
1377;DHT22;682;52.502;13.488;2023-11-18T08:17:40;6.50;1.00
1377;DHT22;682;52.502;13.488;2023-11-18T08:20:08;6.60;1.00
1377;DHT22;682;52.502;13.488;2023-11-18T08:22:39;6.70;1.00
1377;DHT22;682;52.502;13.488;2023-11-18T08:25:07;6.70;1.00
1377;DHT22;682;52.502;13.488;2023-11-18T08:27:36;6.60;1.00
1377;DHT22;682;52.502;13.488;2023-11-18T08:30:03;6.60;1.00
1377;DHT22;682;52.502;13.488;2023-11-18T08:32:36;6.60;1.00
1377;DHT22;682;52.502;13.488;2023-11-18T08:35:04;6.50;1.00
1377;DHT22;682;52.502;13.488;2023-11-18T08:37:32;6.60;1.00
1377;DHT22;682;52.502;13.488;2023-11-18T08:39:59;6.60;1.00
1377;DHT22;682;52.502;13.488;2023-11-18T08:42:26;6.60;1.00
1377;DHT22;682;52.502;13.488;2023-11-18T08:44:56;6.50;1.00
1377;DHT22;682;52.502;13.488;2023-11-18T08:47:24;6.60;1.00
1377;DHT22;682;52.502;13.488;2023-11-18T08:49:51;6.60;1.00
1377;DHT22;682;52.502;13.488;2023-11-18T08:52:18;6.70;1.00
1377;DHT22;682;52.502;13.488;2023-11-18T08:54:46;6.80;1.00
1377;DHT22;682;52.502;13.488;2023-11-18T08:57:26;6.90;1.00
1377;DHT22;682;52.502;13.488;2023-11-18T09:00:01;6.90;1.00
1377;DHT22;682;52.502;13.488;2023-11-18T09:02:43;7.00;1.00
1377;DHT22;682;52.502;13.488;2023-11-18T09:05:10;7.10;1.00
1377;DHT22;682;52.502;13.488;2023-11-18T09:07:38;7.20;1.00
1377;DHT22;682;52.502;13.488;2023-11-18T09:10:08;7.30;1.00
1377;DHT22;682;52.502;13.488;2023-11-18T09:12:37;7.40;1.00
1377;DHT22;682;52.502;13.488;2023-11-18T09:15:09;7.50;1.00
1377;DHT22;682;52.502;13.488;2023-11-18T09:17:39;7.60;1.00
1377;DHT22;682;52.502;13.488;2023-11-18T09:20:10;7.60;1.00
1377;DHT22;682;52.502;13.488;2023-11-18T09:22:37;7.60;1.00
1377;DHT22;682;52.502;13.488;2023-11-18T09:25:05;7.50;1.00
1377;DHT22;682;52.502;13.488;2023-11-18T09:27:34;7.60;1.00
1377;DHT22;682;52.502;13.488;2023-11-18T09:30:02;7.60;1.00
1377;DHT22;682;52.502;13.488;2023-11-18T09:32:40;7.60;1.00
1377;DHT22;682;52.502;13.488;2023-11-18T09:35:08;7.60;1.00
1377;DHT22;682;52.502;13.488;2023-11-18T09:37:38;7.60;1.00
1377;DHT22;682;52.502;13.488;2023-11-18T09:40:07;7.60;1.00
1377;DHT22;682;52.502;13.488;2023-11-18T09:42:38;7.60;1.00
1377;DHT22;682;52.502;13.488;2023-11-18T09:45:06;7.60;1.00
1377;DHT22;682;52.502;13.488;2023-11-18T09:47:43;7.60;1.00
1377;DHT22;682;52.502;13.488;2023-11-18T09:50:17;7.60;1.00
1377;DHT22;682;52.502;13.488;2023-11-18T09:52:49;7.80;1.00
1377;DHT22;682;52.502;13.488;2023-11-18T09:55:26;7.90;1.00
1377;DHT22;682;52.502;13.488;2023-11-18T09:58:03;8.00;1.00
1377;DHT22;682;52.502;13.488;2023-11-18T10:00:35;8.10;1.00
1377;DHT22;682;52.502;13.488;2023-11-18T10:03:08;8.20;1.00
1377;DHT22;682;52.502;13.488;2023-11-18T10:05:41;8.20;1.00
1377;DHT22;682;52.502;13.488;2023-11-18T10:08:09;8.10;1.00
1377;DHT22;682;52.502;13.488;2023-11-18T10:10:36;8.00;1.00
1377;DHT22;682;52.502;13.488;2023-11-18T10:13:04;8.00;1.00
1377;DHT22;682;52.502;13.488;2023-11-18T10:15:34;7.90;1.00
1377;DHT22;682;52.502;13.488;2023-11-18T10:18:03;8.00;1.00
1377;DHT22;682;52.502;13.488;2023-11-18T10:20:52;8.00;1.00
1377;DHT22;682;52.502;13.488;2023-11-18T10:23:21;7.90;1.00
1377;DHT22;682;52.502;13.488;2023-11-18T10:25:51;8.00;1.00
1377;DHT22;682;52.502;13.488;2023-11-18T10:28:23;8.10;1.00
1377;DHT22;682;52.502;13.488;2023-11-18T10:30:50;8.20;1.00
1377;DHT22;682;52.502;13.488;2023-11-18T10:33:17;8.40;1.00
1377;DHT22;682;52.502;13.488;2023-11-18T10:35:52;8.50;1.00
1377;DHT22;682;52.502;13.488;2023-11-18T10:38:21;8.70;1.00
1377;DHT22;682;52.502;13.488;2023-11-18T10:40:53;8.80;1.00
1377;DHT22;682;52.502;13.488;2023-11-18T10:43:21;8.90;1.00
1377;DHT22;682;52.502;13.488;2023-11-18T10:45:51;8.80;1.00
1377;DHT22;682;52.502;13.488;2023-11-18T10:48:18;8.70;1.00
1377;DHT22;682;52.502;13.488;2023-11-18T10:50:47;8.80;1.00
1377;DHT22;682;52.502;13.488;2023-11-18T10:53:18;9.00;1.00
1377;DHT22;682;52.502;13.488;2023-11-18T10:55:47;9.10;1.00
1377;DHT22;682;52.502;13.488;2023-11-18T10:58:16;9.00;1.00
1377;DHT22;682;52.502;13.488;2023-11-18T11:00:50;8.90;1.00
1377;DHT22;682;52.502;13.488;2023-11-18T11:03:19;8.90;1.00
1377;DHT22;682;52.502;13.488;2023-11-18T11:05:49;8.80;1.00
1377;DHT22;682;52.502;13.488;2023-11-18T11:08:18;8.90;1.00
1377;DHT22;682;52.502;13.488;2023-11-18T11:10:49;8.70;1.00
1377;DHT22;682;52.502;13.488;2023-11-18T11:13:18;8.70;1.00
1377;DHT22;682;52.502;13.488;2023-11-18T11:15:47;8.70;1.00
1377;DHT22;682;52.502;13.488;2023-11-18T11:18:20;8.70;1.00
1377;DHT22;682;52.502;13.488;2023-11-18T11:20:57;8.50;1.00
1377;DHT22;682;52.502;13.488;2023-11-18T11:23:38;8.40;1.00
1377;DHT22;682;52.502;13.488;2023-11-18T11:26:18;8.40;1.00
1377;DHT22;682;52.502;13.488;2023-11-18T11:28:57;8.30;1.00
1377;DHT22;682;52.502;13.488;2023-11-18T11:31:31;8.40;1.00
1377;DHT22;682;52.502;13.488;2023-11-18T11:34:02;8.40;1.00
1377;DHT22;682;52.502;13.488;2023-11-18T11:36:37;8.50;1.00
1377;DHT22;682;52.502;13.488;2023-11-18T11:39:10;8.60;1.00
1377;DHT22;682;52.502;13.488;2023-11-18T11:41:44;8.50;1.00
1377;DHT22;682;52.502;13.488;2023-11-18T11:44:13;8.40;1.00
1377;DHT22;682;52.502;13.488;2023-11-18T11:46:42;8.20;1.00
1377;DHT22;682;52.502;13.488;2023-11-18T11:49:11;8.20;1.00
1377;DHT22;682;52.502;13.488;2023-11-18T11:51:48;8.20;1.00
1377;DHT22;682;52.502;13.488;2023-11-18T11:54:21;8.20;1.00
1377;DHT22;682;52.502;13.488;2023-11-18T11:56:50;8.30;1.00
1377;DHT22;682;52.502;13.488;2023-11-18T11:59:35;8.40;1.00
1377;DHT22;682;52.502;13.488;2023-11-18T12:02:10;8.60;1.00
1377;DHT22;682;52.502;13.488;2023-11-18T12:04:43;8.70;1.00
1377;DHT22;682;52.502;13.488;2023-11-18T12:07:11;8.70;1.00
1377;DHT22;682;52.502;13.488;2023-11-18T12:09:42;8.80;1.00
1377;DHT22;682;52.502;13.488;2023-11-18T12:12:17;8.90;1.00
1377;DHT22;682;52.502;13.488;2023-11-18T12:14:51;9.10;1.00
1377;DHT22;682;52.502;13.488;2023-11-18T12:17:22;9.20;1.00
1377;DHT22;682;52.502;13.488;2023-11-18T12:19:54;9.40;1.00
1377;DHT22;682;52.502;13.488;2023-11-18T12:22:25;9.50;1.00
1377;DHT22;682;52.502;13.488;2023-11-18T12:28:07;10.30;1.00
1377;DHT22;682;52.502;13.488;2023-11-18T12:30:47;11.00;1.00
1377;DHT22;682;52.502;13.488;2023-11-18T12:33:21;11.30;1.00
1377;DHT22;682;52.502;13.488;2023-11-18T12:39:09;13.10;1.00
1377;DHT22;682;52.502;13.488;2023-11-18T12:41:54;13.80;1.00
1377;DHT22;682;52.502;13.488;2023-11-18T12:44:30;14.20;1.00
1377;DHT22;682;52.502;13.488;2023-11-18T12:47:00;14.90;1.00
1377;DHT22;682;52.502;13.488;2023-11-18T12:49:39;15.90;1.00
1377;DHT22;682;52.502;13.488;2023-11-18T12:52:08;17.20;1.00
1377;DHT22;682;52.502;13.488;2023-11-18T12:54:36;17.10;1.00
1377;DHT22;682;52.502;13.488;2023-11-18T12:57:07;15.10;1.00
1377;DHT22;682;52.502;13.488;2023-11-18T12:59:37;15.20;1.00
1377;DHT22;682;52.502;13.488;2023-11-18T13:02:07;16.30;1.00
1377;DHT22;682;52.502;13.488;2023-11-18T13:04:39;16.20;1.00
1377;DHT22;682;52.502;13.488;2023-11-18T13:07:06;15.50;1.00
1377;DHT22;682;52.502;13.488;2023-11-18T13:09:36;14.90;1.00
1377;DHT22;682;52.502;13.488;2023-11-18T13:12:07;13.90;1.00
1377;DHT22;682;52.502;13.488;2023-11-18T13:14:37;13.00;1.00
1377;DHT22;682;52.502;13.488;2023-11-18T13:17:09;12.20;1.00
1377;DHT22;682;52.502;13.488;2023-11-18T13:19:37;11.30;1.00
1377;DHT22;682;52.502;13.488;2023-11-18T13:22:05;10.80;1.00
1377;DHT22;682;52.502;13.488;2023-11-18T13:24:34;10.30;1.00
1377;DHT22;682;52.502;13.488;2023-11-18T13:27:02;10.00;1.00
1377;DHT22;682;52.502;13.488;2023-11-18T13:29:30;9.70;1.00
1377;DHT22;682;52.502;13.488;2023-11-18T13:32:00;9.50;1.00
1377;DHT22;682;52.502;13.488;2023-11-18T13:34:31;9.30;1.00
1377;DHT22;682;52.502;13.488;2023-11-18T13:37:00;9.10;1.00
1377;DHT22;682;52.502;13.488;2023-11-18T13:39:28;9.00;1.00
1377;DHT22;682;52.502;13.488;2023-11-18T13:41:58;9.00;1.00
1377;DHT22;682;52.502;13.488;2023-11-18T13:44:44;9.20;1.00
1377;DHT22;682;52.502;13.488;2023-11-18T13:47:17;9.20;1.00
1377;DHT22;682;52.502;13.488;2023-11-18T13:49:44;9.30;1.00
1377;DHT22;682;52.502;13.488;2023-11-18T13:52:13;9.40;1.00
1377;DHT22;682;52.502;13.488;2023-11-18T13:54:42;9.30;1.00
1377;DHT22;682;52.502;13.488;2023-11-18T13:57:11;9.40;1.00
1377;DHT22;682;52.502;13.488;2023-11-18T13:59:38;9.30;1.00
1377;DHT22;682;52.502;13.488;2023-11-18T14:02:13;9.00;1.00
1377;DHT22;682;52.502;13.488;2023-11-18T14:04:42;8.80;1.00
1377;DHT22;682;52.502;13.488;2023-11-18T14:07:13;8.60;1.00
1377;DHT22;682;52.502;13.488;2023-11-18T14:09:42;8.50;1.00
1377;DHT22;682;52.502;13.488;2023-11-18T14:12:11;8.40;1.00
1377;DHT22;682;52.502;13.488;2023-11-18T14:14:39;8.30;1.00
1377;DHT22;682;52.502;13.488;2023-11-18T14:17:07;8.10;1.00
1377;DHT22;682;52.502;13.488;2023-11-18T14:19:37;7.90;1.00
1377;DHT22;682;52.502;13.488;2023-11-18T14:22:07;7.70;1.00
1377;DHT22;682;52.502;13.488;2023-11-18T14:24:35;7.60;1.00
1377;DHT22;682;52.502;13.488;2023-11-18T14:27:02;7.50;1.00
1377;DHT22;682;52.502;13.488;2023-11-18T14:29:30;7.40;1.00
1377;DHT22;682;52.502;13.488;2023-11-18T14:31:57;7.20;1.00
1377;DHT22;682;52.502;13.488;2023-11-18T14:34:24;7.10;1.00
1377;DHT22;682;52.502;13.488;2023-11-18T14:36:53;7.10;1.00
1377;DHT22;682;52.502;13.488;2023-11-18T14:39:21;7.10;1.00
1377;DHT22;682;52.502;13.488;2023-11-18T14:41:49;7.00;1.00
1377;DHT22;682;52.502;13.488;2023-11-18T14:44:16;7.00;1.00
1377;DHT22;682;52.502;13.488;2023-11-18T14:46:44;6.80;1.00
1377;DHT22;682;52.502;13.488;2023-11-18T14:49:11;6.80;1.00
1377;DHT22;682;52.502;13.488;2023-11-18T14:51:38;6.60;1.00
1377;DHT22;682;52.502;13.488;2023-11-18T14:54:07;6.60;1.00
1377;DHT22;682;52.502;13.488;2023-11-18T14:56:34;6.70;1.00
1377;DHT22;682;52.502;13.488;2023-11-18T14:59:02;6.70;1.00
1377;DHT22;682;52.502;13.488;2023-11-18T15:01:30;6.70;1.00
1377;DHT22;682;52.502;13.488;2023-11-18T15:03:58;6.70;1.00
1377;DHT22;682;52.502;13.488;2023-11-18T15:06:25;6.70;1.00
1377;DHT22;682;52.502;13.488;2023-11-18T15:08:53;6.70;1.00
1377;DHT22;682;52.502;13.488;2023-11-18T15:11:24;6.70;1.00
1377;DHT22;682;52.502;13.488;2023-11-18T15:13:52;6.70;1.00
1377;DHT22;682;52.502;13.488;2023-11-18T15:16:20;6.70;1.00
1377;DHT22;682;52.502;13.488;2023-11-18T15:18:48;6.70;1.00
1377;DHT22;682;52.502;13.488;2023-11-18T15:21:17;6.60;1.00
1377;DHT22;682;52.502;13.488;2023-11-18T15:23:46;6.60;1.00
1377;DHT22;682;52.502;13.488;2023-11-18T15:26:13;6.50;1.00
1377;DHT22;682;52.502;13.488;2023-11-18T15:28:42;6.60;1.00
1377;DHT22;682;52.502;13.488;2023-11-18T15:31:09;6.60;1.00
1377;DHT22;682;52.502;13.488;2023-11-18T15:33:36;6.50;1.00
1377;DHT22;682;52.502;13.488;2023-11-18T15:36:05;6.50;1.00
1377;DHT22;682;52.502;13.488;2023-11-18T15:38:35;6.50;1.00
1377;DHT22;682;52.502;13.488;2023-11-18T15:41:04;6.40;1.00
1377;DHT22;682;52.502;13.488;2023-11-18T15:43:31;6.40;1.00
1377;DHT22;682;52.502;13.488;2023-11-18T15:45:59;6.40;1.00
1377;DHT22;682;52.502;13.488;2023-11-18T15:48:26;6.40;1.00
1377;DHT22;682;52.502;13.488;2023-11-18T15:50:54;6.40;1.00
1377;DHT22;682;52.502;13.488;2023-11-18T15:53:22;6.50;1.00
1377;DHT22;682;52.502;13.488;2023-11-18T15:55:50;6.40;1.00
1377;DHT22;682;52.502;13.488;2023-11-18T15:58:18;6.40;1.00
1377;DHT22;682;52.502;13.488;2023-11-18T16:00:48;6.40;1.00
1377;DHT22;682;52.502;13.488;2023-11-18T16:03:19;6.50;1.00
1377;DHT22;682;52.502;13.488;2023-11-18T16:05:46;6.50;1.00
1377;DHT22;682;52.502;13.488;2023-11-18T16:08:15;6.50;1.00
1377;DHT22;682;52.502;13.488;2023-11-18T16:10:42;6.50;1.00
1377;DHT22;682;52.502;13.488;2023-11-18T16:13:10;6.50;1.00
1377;DHT22;682;52.502;13.488;2023-11-18T16:15:37;6.40;1.00
1377;DHT22;682;52.502;13.488;2023-11-18T16:18:04;6.40;1.00
1377;DHT22;682;52.502;13.488;2023-11-18T16:20:33;6.30;1.00
1377;DHT22;682;52.502;13.488;2023-11-18T16:23:02;6.20;1.00
1377;DHT22;682;52.502;13.488;2023-11-18T16:25:29;6.10;1.00
1377;DHT22;682;52.502;13.488;2023-11-18T16:27:58;6.00;1.00
1377;DHT22;682;52.502;13.488;2023-11-18T16:30:28;6.00;1.00
1377;DHT22;682;52.502;13.488;2023-11-18T16:32:56;5.80;1.00
1377;DHT22;682;52.502;13.488;2023-11-18T16:35:24;5.80;1.00
1377;DHT22;682;52.502;13.488;2023-11-18T16:37:53;5.70;1.00
1377;DHT22;682;52.502;13.488;2023-11-18T16:40:22;5.60;1.00
1377;DHT22;682;52.502;13.488;2023-11-18T16:42:50;5.60;1.00
1377;DHT22;682;52.502;13.488;2023-11-18T16:45:17;5.50;1.00
1377;DHT22;682;52.502;13.488;2023-11-18T16:47:46;5.50;1.00
1377;DHT22;682;52.502;13.488;2023-11-18T16:50:17;5.40;1.00
1377;DHT22;682;52.502;13.488;2023-11-18T16:52:44;5.40;1.00